createdAt,value
2022-12-25T00:01:22.457Z,85.17
2022-12-25T00:03:55.057Z,84.93
2022-12-25T00:06:27.051Z,84.94
2022-12-25T00:08:58.697Z,85.00
2022-12-25T00:11:30.378Z,85.26
2022-12-25T00:14:01.984Z,85.19
2022-12-25T00:16:33.718Z,85.11
2022-12-25T00:19:05.673Z,85.14
2022-12-25T00:21:37.404Z,85.16
2022-12-25T00:24:10.507Z,85.09
2022-12-25T00:26:42.130Z,84.72
2022-12-25T00:29:14.818Z,85.06
2022-12-25T00:31:46.601Z,85.07
2022-12-25T00:34:18.334Z,85.07
2022-12-25T00:36:52.862Z,85.14
2022-12-25T00:39:24.509Z,85.03
2022-12-25T00:42:13.839Z,84.82
2022-12-25T00:44:45.471Z,84.86
2022-12-25T00:47:18.062Z,84.94
2022-12-25T00:49:49.805Z,84.97
2022-12-25T00:52:21.539Z,84.92
2022-12-25T00:54:53.182Z,84.83
2022-12-25T00:57:25.843Z,84.83
2022-12-25T00:59:57.427Z,84.80
2022-12-25T01:02:29.322Z,84.84
2022-12-25T01:05:01.091Z,84.62
2022-12-25T01:07:32.773Z,84.49
2022-12-25T01:10:23.461Z,84.54
2022-12-25T01:12:55.115Z,84.46
2022-12-25T01:15:26.937Z,84.62
2022-12-25T01:18:00.669Z,84.63
2022-12-25T01:20:37.820Z,84.69
2022-12-25T01:23:08.330Z,84.67
2022-12-25T01:25:40.346Z,84.68
2022-12-25T01:28:11.994Z,84.69
2022-12-25T01:30:50.491Z,84.59
2022-12-25T01:33:22.233Z,84.68
2022-12-25T01:35:53.866Z,84.82
2022-12-25T01:38:25.596Z,84.74
2022-12-25T01:40:57.469Z,84.59
2022-12-25T01:43:32.581Z,84.89
2022-12-25T01:46:05.250Z,84.71
2022-12-25T01:48:39.586Z,84.75
2022-12-25T01:51:21.567Z,84.83
2022-12-25T01:53:53.915Z,84.99
2022-12-25T01:56:27.251Z,85.14
2022-12-25T01:59:00.443Z,85.05
2022-12-25T02:01:32.346Z,85.23
2022-12-25T02:04:10.527Z,85.25
2022-12-25T02:06:42.585Z,85.14
2022-12-25T02:09:15.172Z,85.26
2022-12-25T02:11:58.053Z,85.23
2022-12-25T02:14:33.247Z,84.82
2022-12-25T02:17:12.503Z,85.01
2022-12-25T02:20:13.062Z,85.20
2022-12-25T02:22:57.333Z,85.13
2022-12-25T02:25:44.335Z,85.27
2022-12-25T02:28:22.572Z,85.21
2022-12-25T02:30:57.633Z,85.26
2022-12-25T02:33:55.174Z,85.39
2022-12-25T02:36:33.624Z,85.56
2022-12-25T02:39:32.300Z,85.60
2022-12-25T02:42:07.939Z,85.76
2022-12-25T02:45:03.180Z,85.82
2022-12-25T02:47:54.363Z,85.98
2022-12-25T02:50:49.759Z,85.94
2022-12-25T02:53:42.437Z,86.04
2022-12-25T02:56:35.574Z,86.04
2022-12-25T02:59:26.654Z,86.14
2022-12-25T03:02:16.658Z,86.24
2022-12-25T03:05:08.127Z,86.17
2022-12-25T03:07:43.003Z,86.04
2022-12-25T03:10:36.088Z,86.08
2022-12-25T03:13:16.863Z,86.20
2022-12-25T03:16:08.826Z,86.13
2022-12-25T03:18:40.814Z,86.13
2022-12-25T03:21:32.258Z,86.05
2022-12-25T03:24:22.540Z,86.01
2022-12-25T03:26:57.672Z,86.10
2022-12-25T03:29:52.739Z,86.14
2022-12-25T03:32:46.881Z,86.17
2022-12-25T03:35:27.483Z,86.07
2022-12-25T03:38:52.201Z,86.13
2022-12-25T03:41:50.763Z,86.11
2022-12-25T03:45:00.940Z,86.05
2022-12-25T03:47:56.933Z,85.95
2022-12-25T03:50:52.282Z,85.88
2022-12-25T03:53:46.230Z,85.93
2022-12-25T03:56:37.217Z,85.78
2022-12-25T03:59:26.477Z,85.82
2022-12-25T04:02:15.961Z,85.82
2022-12-25T04:05:07.075Z,85.86
2022-12-25T04:07:56.523Z,85.81
2022-12-25T04:10:46.341Z,85.81
2022-12-25T04:13:36.238Z,85.79
2022-12-25T04:16:28.314Z,85.81
2022-12-25T04:19:17.707Z,85.73
2022-12-25T04:22:06.921Z,85.63
2022-12-25T04:24:56.407Z,85.63
2022-12-25T04:27:45.870Z,85.64
2022-12-25T04:30:35.101Z,85.74
2022-12-25T04:33:24.797Z,85.63
2022-12-25T04:36:12.260Z,85.48
2022-12-25T04:38:49.051Z,85.49
2022-12-25T04:41:20.779Z,85.42
2022-12-25T04:43:54.988Z,85.40
2022-12-25T04:46:29.869Z,85.33
2022-12-25T04:49:01.541Z,85.31
2022-12-25T04:51:33.318Z,85.40
2022-12-25T04:54:07.678Z,85.47
2022-12-25T04:56:45.244Z,85.43
2022-12-25T04:59:18.463Z,85.50
2022-12-25T05:01:52.670Z,85.39
2022-12-25T05:04:24.433Z,85.34
2022-12-25T05:06:56.275Z,85.27
2022-12-25T05:09:28.728Z,85.28
2022-12-25T05:12:00.753Z,85.51
2022-12-25T05:14:32.499Z,85.37
2022-12-25T05:17:04.500Z,85.33
2022-12-25T05:19:36.273Z,85.29
2022-12-25T05:22:07.944Z,85.30
2022-12-25T05:24:39.546Z,85.17
2022-12-25T05:27:14.005Z,84.92
2022-12-25T05:29:47.499Z,84.87
2022-12-25T05:32:21.871Z,84.99
2022-12-25T05:34:53.535Z,85.01
2022-12-25T05:37:25.143Z,85.06
2022-12-25T05:39:59.431Z,85.06
2022-12-25T05:42:35.472Z,85.06
2022-12-25T05:45:10.491Z,84.98
2022-12-25T05:47:42.128Z,84.82
2022-12-25T05:50:17.016Z,84.79
2022-12-25T05:52:50.642Z,84.74
2022-12-25T05:55:21.007Z,84.68
2022-12-25T05:57:52.694Z,84.74
2022-12-25T06:00:30.783Z,84.63
2022-12-25T06:03:02.639Z,84.46
2022-12-25T06:05:34.861Z,84.49
2022-12-25T06:08:06.626Z,84.44
2022-12-25T06:10:40.666Z,84.31
2022-12-25T06:13:15.084Z,84.42
2022-12-25T06:15:46.899Z,84.32
2022-12-25T06:18:18.695Z,84.31
2022-12-25T06:20:51.383Z,84.24
2022-12-25T06:23:23.117Z,84.10
2022-12-25T06:25:54.921Z,83.94
2022-12-25T06:28:34.478Z,84.05
2022-12-25T06:31:10.778Z,83.97
2022-12-25T06:33:43.080Z,83.94
2022-12-25T06:36:17.382Z,83.91
2022-12-25T06:38:49.733Z,83.85
2022-12-25T06:41:25.675Z,83.84
2022-12-25T06:44:01.592Z,83.82
2022-12-25T06:46:33.581Z,83.82
2022-12-25T06:49:05.357Z,83.77
2022-12-25T06:51:37.302Z,83.80
2022-12-25T06:54:10.541Z,83.54
2022-12-25T06:56:42.353Z,83.54
2022-12-25T06:59:17.126Z,83.32
2022-12-25T07:01:53.516Z,83.31
2022-12-25T07:04:31.935Z,83.52
2022-12-25T07:07:08.715Z,83.56
2022-12-25T07:09:44.301Z,83.41
2022-12-25T07:12:20.973Z,83.52
2022-12-25T07:14:54.580Z,83.48
2022-12-25T07:17:24.949Z,83.43
2022-12-25T07:19:57.239Z,83.46
2022-12-25T07:22:31.191Z,83.41
2022-12-25T07:25:02.841Z,83.43
2022-12-25T07:27:34.555Z,83.50
2022-12-25T07:30:08.042Z,83.32
2022-12-25T07:32:39.633Z,83.32
2022-12-25T07:35:12.004Z,83.51
2022-12-25T07:37:43.928Z,83.39
2022-12-25T07:40:16.154Z,83.58
2022-12-25T07:42:47.803Z,83.71
2022-12-25T07:45:19.638Z,83.49
2022-12-25T07:47:53.855Z,83.77
2022-12-25T07:50:26.821Z,83.66
2022-12-25T07:52:59.487Z,83.76
2022-12-25T07:55:31.219Z,83.76
2022-12-25T07:58:02.856Z,83.74
2022-12-25T08:00:34.547Z,83.82
2022-12-25T08:03:06.673Z,83.85
2022-12-25T08:05:38.760Z,84.01
2022-12-25T08:08:10.611Z,83.91
2022-12-25T08:10:47.653Z,84.03
2022-12-25T08:13:19.264Z,84.06
2022-12-25T08:15:50.943Z,84.09
2022-12-25T08:18:29.509Z,84.14
2022-12-25T08:21:05.176Z,84.29
2022-12-25T08:23:38.685Z,84.47
2022-12-25T08:26:12.901Z,84.32
2022-12-25T08:28:44.637Z,84.40
2022-12-25T08:31:23.559Z,84.69
2022-12-25T08:33:57.032Z,84.69
2022-12-25T08:36:28.780Z,84.69
2022-12-25T08:39:03.253Z,84.61
2022-12-25T08:41:36.891Z,84.53
2022-12-25T08:44:08.887Z,84.64
2022-12-25T08:46:40.863Z,84.91
2022-12-25T08:49:12.686Z,84.79
2022-12-25T08:51:46.850Z,84.79
2022-12-25T08:54:18.682Z,84.76
2022-12-25T08:56:51.368Z,84.63
2022-12-25T08:59:23.353Z,84.51
2022-12-25T09:01:55.118Z,84.63
2022-12-25T09:04:27.052Z,84.14
2022-12-25T09:06:58.781Z,83.87
2022-12-25T09:09:31.533Z,83.79
2022-12-25T09:12:03.337Z,83.49
2022-12-25T09:14:35.091Z,83.64
2022-12-25T09:17:06.725Z,83.62
2022-12-25T09:19:38.409Z,83.37
2022-12-25T09:22:10.100Z,83.60
2022-12-25T09:24:43.758Z,83.59
2022-12-25T09:27:14.069Z,83.58
2022-12-25T09:29:45.788Z,83.34
2022-12-25T09:32:17.399Z,82.87
2022-12-25T09:34:49.138Z,82.76
2022-12-25T09:37:20.856Z,82.67
2022-12-25T09:39:52.572Z,82.65
2022-12-25T09:42:26.435Z,82.77
2022-12-25T09:45:01.960Z,82.58
2022-12-25T09:47:37.044Z,82.41
2022-12-25T09:50:16.290Z,82.56
2022-12-25T09:52:54.082Z,82.37
2022-12-25T09:55:27.749Z,81.61
2022-12-25T09:57:59.818Z,81.83
2022-12-25T10:00:38.208Z,81.77
2022-12-25T10:03:26.304Z,81.89
2022-12-25T10:06:12.070Z,81.78
2022-12-25T10:09:13.968Z,81.39
2022-12-25T10:12:07.635Z,81.22
2022-12-25T10:14:51.686Z,81.36
2022-12-25T10:17:27.448Z,81.02
2022-12-25T10:20:12.347Z,80.94
2022-12-25T10:22:47.686Z,80.92
2022-12-25T10:25:22.394Z,81.25
2022-12-25T10:27:57.496Z,81.38
2022-12-25T10:30:30.789Z,81.28
2022-12-25T10:33:02.957Z,81.14
2022-12-25T10:35:34.757Z,80.99
2022-12-25T10:38:13.597Z,80.62
2022-12-25T10:40:59.369Z,80.54
2022-12-25T10:43:38.106Z,80.37
2022-12-25T10:46:15.521Z,79.94
2022-12-25T10:48:51.248Z,79.93
2022-12-25T10:51:34.568Z,79.88
2022-12-25T10:54:20.419Z,80.20
2022-12-25T10:57:00.794Z,79.21
2022-12-25T10:59:35.854Z,78.07
2022-12-25T11:02:21.113Z,78.53
2022-12-25T11:04:59.313Z,78.09
2022-12-25T11:07:31.627Z,78.74
2022-12-25T11:10:06.274Z,78.34
2022-12-25T11:12:43.192Z,77.42
2022-12-25T11:15:36.476Z,78.07
2022-12-25T11:18:20.993Z,76.97
2022-12-25T11:20:54.804Z,76.05
2022-12-25T11:23:25.676Z,75.82
2022-12-25T11:26:03.591Z,76.08
2022-12-25T11:28:39.640Z,76.84
2022-12-25T11:31:15.073Z,77.14
2022-12-25T11:33:53.558Z,77.19
2022-12-25T11:36:33.000Z,76.77
2022-12-25T11:39:15.893Z,76.20
2022-12-25T11:41:49.391Z,76.57
2022-12-25T11:44:31.766Z,76.98
2022-12-25T11:47:13.015Z,76.99
2022-12-25T11:49:52.178Z,76.26
2022-12-25T11:52:30.402Z,75.04
2022-12-25T11:55:06.638Z,75.11
2022-12-25T11:57:41.190Z,75.76
2022-12-25T12:00:17.695Z,75.41
2022-12-25T12:02:56.089Z,74.92
2022-12-25T12:05:33.977Z,74.90
2022-12-25T12:08:07.460Z,75.18
2022-12-25T12:10:55.291Z,75.47
2022-12-25T12:13:41.525Z,75.22
2022-12-25T12:16:13.401Z,75.05
2022-12-25T12:18:50.272Z,75.38
2022-12-25T12:21:25.788Z,75.39
2022-12-25T12:24:02.390Z,75.44
2022-12-25T12:26:38.188Z,75.55
2022-12-25T12:29:25.429Z,75.62
2022-12-25T12:32:02.321Z,75.35
2022-12-25T12:34:42.679Z,74.94
2022-12-25T12:37:25.135Z,75.37
2022-12-25T12:39:58.156Z,75.58
2022-12-25T12:42:32.720Z,75.54
2022-12-25T12:45:17.140Z,75.01
2022-12-25T12:47:51.196Z,75.00
2022-12-25T12:50:40.867Z,74.91
2022-12-25T12:53:32.044Z,74.62
2022-12-25T12:56:16.385Z,74.58
2022-12-25T12:58:51.117Z,74.32
2022-12-25T13:01:38.482Z,74.57
2022-12-25T13:04:37.252Z,74.46
2022-12-25T13:07:18.908Z,74.42
2022-12-25T13:10:03.799Z,74.31
2022-12-25T13:12:35.783Z,74.27
2022-12-25T13:15:15.286Z,74.29
2022-12-25T13:17:50.029Z,74.35
2022-12-25T13:20:32.254Z,74.67
2022-12-25T13:23:13.562Z,74.68
2022-12-25T13:25:52.316Z,74.62
2022-12-25T13:28:29.759Z,74.62
2022-12-25T13:31:07.192Z,74.55
2022-12-25T13:33:40.175Z,74.61
2022-12-25T13:36:15.059Z,74.73
2022-12-25T13:38:49.344Z,74.55
2022-12-25T13:41:42.102Z,74.66
2022-12-25T13:44:21.174Z,74.58
2022-12-25T13:46:53.138Z,74.85
2022-12-25T13:49:25.834Z,74.86
2022-12-25T13:52:12.302Z,74.99
2022-12-25T13:54:58.052Z,74.98
2022-12-25T13:57:34.598Z,74.35
2022-12-25T14:00:09.275Z,74.33
2022-12-25T14:02:41.884Z,74.59
2022-12-25T14:05:28.335Z,74.56
2022-12-25T14:08:03.256Z,74.55
2022-12-25T14:10:39.127Z,74.62
2022-12-25T14:13:15.668Z,74.86
2022-12-25T14:15:49.067Z,75.17
2022-12-25T14:18:22.673Z,75.25
2022-12-25T14:21:03.655Z,75.47
2022-12-25T14:23:42.986Z,75.61
2022-12-25T14:26:20.007Z,75.57
2022-12-25T14:28:54.334Z,75.63
2022-12-25T14:31:29.481Z,75.87
2022-12-25T14:34:04.348Z,75.95
2022-12-25T14:36:36.664Z,75.99
2022-12-25T14:39:25.583Z,76.06
2022-12-25T14:41:57.646Z,76.11
2022-12-25T14:44:34.787Z,76.01
2022-12-25T14:47:22.772Z,76.16
2022-12-25T14:49:54.783Z,76.03
2022-12-25T14:52:29.175Z,76.13
2022-12-25T14:55:03.927Z,76.13
2022-12-25T14:57:39.031Z,76.16
2022-12-25T15:00:25.063Z,76.24
2022-12-25T15:02:59.738Z,76.27
2022-12-25T15:05:34.614Z,76.41
2022-12-25T15:08:23.061Z,76.43
2022-12-25T15:11:01.218Z,76.36
2022-12-25T15:13:36.176Z,76.44
2022-12-25T15:16:10.225Z,76.32
2022-12-25T15:18:45.737Z,76.53
2022-12-25T15:21:26.124Z,76.51
2022-12-25T15:24:00.031Z,76.50
2022-12-25T15:26:33.685Z,76.52
2022-12-25T15:29:03.788Z,76.35
2022-12-25T15:31:37.353Z,76.50
2022-12-25T15:34:09.043Z,76.67
2022-12-25T15:36:40.661Z,76.74
2022-12-25T15:39:12.525Z,76.75
2022-12-25T15:42:01.743Z,76.72
2022-12-25T15:44:33.430Z,76.44
2022-12-25T15:47:05.401Z,76.74
2022-12-25T15:49:37.014Z,76.62
2022-12-25T15:52:12.721Z,76.99
2022-12-25T15:54:44.329Z,77.34
2022-12-25T15:57:20.542Z,77.42
2022-12-25T15:59:52.260Z,77.61
2022-12-25T16:02:24.113Z,77.84
2022-12-25T16:04:56.113Z,77.60
2022-12-25T16:07:29.303Z,77.63
2022-12-25T16:10:01.013Z,77.76
2022-12-25T16:12:32.748Z,77.91
2022-12-25T16:15:04.949Z,77.80
2022-12-25T16:17:36.592Z,78.08
2022-12-25T16:20:10.463Z,78.18
2022-12-25T16:22:42.075Z,78.29
2022-12-25T16:25:19.429Z,77.94
2022-12-25T16:27:51.009Z,78.00
2022-12-25T16:30:22.983Z,78.10
2022-12-25T16:32:54.750Z,78.25
2022-12-25T16:35:26.380Z,78.45
2022-12-25T16:37:58.228Z,78.40
2022-12-25T16:40:30.652Z,78.47
2022-12-25T16:43:02.649Z,78.61
2022-12-25T16:45:38.281Z,78.73
2022-12-25T16:48:10.445Z,79.08
2022-12-25T16:50:42.627Z,79.05
2022-12-25T16:53:14.315Z,79.14
2022-12-25T16:55:46.022Z,79.29
2022-12-25T16:58:17.601Z,79.23
2022-12-25T17:00:49.775Z,79.37
2022-12-25T17:03:21.565Z,79.44
2022-12-25T17:05:53.483Z,79.24
2022-12-25T17:08:25.053Z,79.18
2022-12-25T17:10:57.058Z,79.25
2022-12-25T17:13:28.676Z,79.29
2022-12-25T17:16:00.319Z,79.27
2022-12-25T17:18:32.077Z,79.30
2022-12-25T17:21:04.304Z,79.17
2022-12-25T17:23:37.115Z,79.10
2022-12-25T17:26:09.319Z,79.21
2022-12-25T17:28:40.922Z,79.11
2022-12-25T17:31:14.789Z,79.30
2022-12-25T17:33:46.887Z,79.24
2022-12-25T17:36:20.363Z,79.32
2022-12-25T17:38:52.061Z,79.61
2022-12-25T17:41:23.850Z,79.44
2022-12-25T17:43:55.458Z,79.66
2022-12-25T17:46:28.974Z,79.80
2022-12-25T17:49:00.226Z,79.75
2022-12-25T17:51:32.694Z,79.82
2022-12-25T17:54:04.664Z,79.77
2022-12-25T17:56:36.730Z,79.81
2022-12-25T17:59:12.104Z,79.91
2022-12-25T18:01:43.801Z,79.92
2022-12-25T18:04:15.980Z,79.89
2022-12-25T18:06:47.853Z,79.90
2022-12-25T18:09:20.061Z,80.00
2022-12-25T18:11:52.037Z,79.94
2022-12-25T18:14:24.927Z,79.89
2022-12-25T18:16:57.422Z,80.05
2022-12-25T18:19:29.047Z,80.01
2022-12-25T18:22:00.838Z,80.11
2022-12-25T18:24:32.890Z,80.17
2022-12-25T18:27:04.647Z,80.19
2022-12-25T18:29:36.245Z,80.44
2022-12-25T18:32:08.329Z,80.53
2022-12-25T18:34:40.026Z,80.50
2022-12-25T18:37:11.805Z,80.53
2022-12-25T18:39:43.465Z,80.40
2022-12-25T18:42:33.172Z,80.66
2022-12-25T18:45:05.459Z,80.60
2022-12-25T18:47:37.539Z,80.61
2022-12-25T18:50:11.542Z,80.74
2022-12-25T18:52:47.808Z,80.73
2022-12-25T18:55:25.863Z,80.73
2022-12-25T18:57:57.970Z,80.91
2022-12-25T19:00:29.728Z,81.05
2022-12-25T19:03:02.177Z,80.99
2022-12-25T19:05:34.050Z,81.05
2022-12-25T19:08:06.227Z,81.02
2022-12-25T19:10:39.354Z,81.05
2022-12-25T19:13:12.220Z,81.11
2022-12-25T19:15:45.193Z,80.93
2022-12-25T19:18:16.980Z,81.25
2022-12-25T19:20:48.934Z,81.14
2022-12-25T19:23:21.238Z,81.06
2022-12-25T19:25:53.597Z,81.01
2022-12-25T19:28:27.437Z,81.23
2022-12-25T19:31:02.731Z,81.19
2022-12-25T19:33:35.352Z,81.08
2022-12-25T19:36:10.988Z,81.02
2022-12-25T19:38:43.972Z,81.16
2022-12-25T19:41:17.846Z,81.29
2022-12-25T19:43:52.122Z,81.35
2022-12-25T19:46:26.813Z,81.34
2022-12-25T19:49:04.275Z,81.45
2022-12-25T19:51:39.215Z,81.60
2022-12-25T19:54:15.667Z,81.48
2022-12-25T19:56:48.099Z,81.51
2022-12-25T19:59:19.962Z,81.55
2022-12-25T20:01:52.014Z,81.61
2022-12-25T20:04:24.039Z,81.76
2022-12-25T20:06:55.689Z,81.74
2022-12-25T20:09:27.307Z,81.70
2022-12-25T20:11:58.961Z,81.86
2022-12-25T20:14:30.622Z,81.91
2022-12-25T20:17:02.375Z,81.85
2022-12-25T20:19:34.545Z,82.00
2022-12-25T20:22:06.131Z,81.97
2022-12-25T20:24:37.787Z,82.01
2022-12-25T20:27:09.547Z,82.01
2022-12-25T20:29:41.190Z,82.08
2022-12-25T20:32:13.033Z,82.10
2022-12-25T20:34:44.891Z,82.16
2022-12-25T20:37:16.544Z,82.05
2022-12-25T20:39:48.381Z,82.04
2022-12-25T20:42:20.373Z,82.12
2022-12-25T20:44:52.583Z,82.23
2022-12-25T20:47:24.497Z,82.20
2022-12-25T20:49:56.364Z,82.31
2022-12-25T20:52:28.034Z,82.26
2022-12-25T20:54:59.637Z,82.30
2022-12-25T20:57:31.560Z,82.26
2022-12-25T21:00:05.062Z,82.24
2022-12-25T21:02:37.954Z,82.12
2022-12-25T21:05:12.444Z,82.02
2022-12-25T21:07:44.081Z,82.05
2022-12-25T21:10:15.858Z,82.12
2022-12-25T21:12:47.488Z,82.12
2022-12-25T21:15:19.447Z,81.96
2022-12-25T21:17:51.038Z,81.61
2022-12-25T21:20:22.620Z,81.33
2022-12-25T21:22:54.242Z,81.30
2022-12-25T21:25:25.881Z,81.49
2022-12-25T21:27:57.618Z,81.50
2022-12-25T21:30:29.280Z,81.54
2022-12-25T21:33:18.706Z,81.71
2022-12-25T21:35:50.832Z,81.65
2022-12-25T21:38:22.479Z,81.69
2022-12-25T21:40:54.102Z,81.71
2022-12-25T21:43:25.716Z,81.76
2022-12-25T21:45:57.374Z,81.83
2022-12-25T21:48:28.977Z,81.88
2022-12-25T21:51:23.425Z,81.49
2022-12-25T21:53:55.129Z,81.69
2022-12-25T21:56:28.157Z,81.73
2022-12-25T21:59:01.519Z,81.69
2022-12-25T22:01:35.405Z,81.46
2022-12-25T22:04:09.027Z,81.47
2022-12-25T22:06:58.866Z,81.54
2022-12-25T22:09:30.807Z,81.68
2022-12-25T22:12:20.646Z,81.70
2022-12-25T22:14:56.356Z,81.84
2022-12-25T22:17:47.640Z,81.86
2022-12-25T22:20:21.652Z,81.67
2022-12-25T22:22:53.807Z,81.91
2022-12-25T22:25:25.999Z,81.83
2022-12-25T22:27:58.489Z,81.58
2022-12-25T22:30:31.956Z,81.68
2022-12-25T22:33:03.779Z,82.01
2022-12-25T22:35:35.424Z,81.87
2022-12-25T22:38:07.181Z,81.78
2022-12-25T22:40:39.032Z,81.97
2022-12-25T22:43:10.891Z,81.81
2022-12-25T22:45:42.557Z,81.93
2022-12-25T22:48:14.191Z,82.12
2022-12-25T22:50:45.819Z,82.14
2022-12-25T22:53:17.506Z,82.17
2022-12-25T22:55:49.791Z,82.23
2022-12-25T22:58:21.521Z,82.29
2022-12-25T23:00:53.247Z,82.22
2022-12-25T23:03:25.042Z,82.17
2022-12-25T23:05:57.818Z,82.18
2022-12-25T23:08:29.592Z,82.02
2022-12-25T23:11:05.675Z,82.01
2022-12-25T23:13:55.913Z,82.11
2022-12-25T23:16:27.656Z,82.14
2022-12-25T23:19:17.162Z,82.00
2022-12-25T23:22:18.021Z,81.91
2022-12-25T23:25:07.792Z,81.80
2022-12-25T23:27:39.443Z,81.86
2022-12-25T23:30:13.592Z,81.81
2022-12-25T23:32:46.025Z,81.60
2022-12-25T23:35:17.616Z,81.75
2022-12-25T23:37:52.998Z,81.70
2022-12-25T23:40:24.731Z,81.82
2022-12-25T23:42:56.351Z,81.92
2022-12-25T23:45:27.979Z,82.00
2022-12-25T23:47:59.678Z,81.77
2022-12-25T23:50:31.296Z,81.86
2022-12-25T23:53:02.901Z,81.81
2022-12-25T23:55:36.399Z,81.82
2022-12-25T23:58:08.174Z,81.82
